sensor_id;sensor_type;location;lat;lon;timestamp;P1;durP1;ratioP1;P2;durP2;ratioP2
74614;SDS011;63121;51.458;-0.110;2023-05-14T00:00:12;18.10;;;8.38;;
74614;SDS011;63121;51.458;-0.110;2023-05-14T00:02:38;17.08;;;8.38;;
74614;SDS011;63121;51.458;-0.110;2023-05-14T00:05:04;16.07;;;7.57;;
74614;SDS011;63121;51.458;-0.110;2023-05-14T00:07:29;19.23;;;8.10;;
74614;SDS011;63121;51.458;-0.110;2023-05-14T00:09:56;20.00;;;8.82;;
74614;SDS011;63121;51.458;-0.110;2023-05-14T00:12:21;16.38;;;7.97;;
74614;SDS011;63121;51.458;-0.110;2023-05-14T00:14:47;15.57;;;7.25;;
74614;SDS011;63121;51.458;-0.110;2023-05-14T00:17:12;15.45;;;7.45;;
74614;SDS011;63121;51.458;-0.110;2023-05-14T00:19:38;18.53;;;8.87;;
74614;SDS011;63121;51.458;-0.110;2023-05-14T00:22:06;24.10;;;8.95;;
74614;SDS011;63121;51.458;-0.110;2023-05-14T00:24:31;18.13;;;8.60;;
74614;SDS011;63121;51.458;-0.110;2023-05-14T00:26:57;16.27;;;8.85;;
74614;SDS011;63121;51.458;-0.110;2023-05-14T00:29:23;15.20;;;7.73;;
74614;SDS011;63121;51.458;-0.110;2023-05-14T00:31:48;16.33;;;8.03;;
74614;SDS011;63121;51.458;-0.110;2023-05-14T00:34:13;16.47;;;8.40;;
74614;SDS011;63121;51.458;-0.110;2023-05-14T00:36:39;19.80;;;9.77;;
74614;SDS011;63121;51.458;-0.110;2023-05-14T00:39:04;19.17;;;8.60;;
74614;SDS011;63121;51.458;-0.110;2023-05-14T00:41:29;20.27;;;9.83;;
74614;SDS011;63121;51.458;-0.110;2023-05-14T00:43:55;21.33;;;10.30;;
74614;SDS011;63121;51.458;-0.110;2023-05-14T00:46:20;19.23;;;8.40;;
74614;SDS011;63121;51.458;-0.110;2023-05-14T00:48:45;16.92;;;8.60;;
74614;SDS011;63121;51.458;-0.110;2023-05-14T00:51:11;20.37;;;9.67;;
74614;SDS011;63121;51.458;-0.110;2023-05-14T00:53:36;18.05;;;9.55;;
74614;SDS011;63121;51.458;-0.110;2023-05-14T00:56:01;17.80;;;8.95;;
74614;SDS011;63121;51.458;-0.110;2023-05-14T00:58:27;22.13;;;9.38;;
74614;SDS011;63121;51.458;-0.110;2023-05-14T01:00:53;16.63;;;8.35;;
74614;SDS011;63121;51.458;-0.110;2023-05-14T01:03:18;18.55;;;9.77;;
74614;SDS011;63121;51.458;-0.110;2023-05-14T01:08:16;20.50;;;9.80;;
74614;SDS011;63121;51.458;-0.110;2023-05-14T01:10:50;18.25;;;8.90;;
74614;SDS011;63121;51.458;-0.110;2023-05-14T01:15:55;21.33;;;10.00;;
74614;SDS011;63121;51.458;-0.110;2023-05-14T01:18:22;17.38;;;8.90;;
74614;SDS011;63121;51.458;-0.110;2023-05-14T01:20:49;20.67;;;10.32;;
74614;SDS011;63121;51.458;-0.110;2023-05-14T01:23:16;19.58;;;9.95;;
74614;SDS011;63121;51.458;-0.110;2023-05-14T01:25:41;21.07;;;10.03;;
74614;SDS011;63121;51.458;-0.110;2023-05-14T01:28:16;19.10;;;9.15;;
74614;SDS011;63121;51.458;-0.110;2023-05-14T01:30:52;19.45;;;9.38;;
74614;SDS011;63121;51.458;-0.110;2023-05-14T01:33:23;19.67;;;9.65;;
74614;SDS011;63121;51.458;-0.110;2023-05-14T01:35:51;19.13;;;9.82;;
74614;SDS011;63121;51.458;-0.110;2023-05-14T01:38:19;20.83;;;10.10;;
74614;SDS011;63121;51.458;-0.110;2023-05-14T01:40:45;21.70;;;10.15;;
74614;SDS011;63121;51.458;-0.110;2023-05-14T01:43:12;19.42;;;9.25;;
74614;SDS011;63121;51.458;-0.110;2023-05-14T01:48:04;22.35;;;8.50;;
74614;SDS011;63121;51.458;-0.110;2023-05-14T01:50:30;20.25;;;9.88;;
74614;SDS011;63121;51.458;-0.110;2023-05-14T01:52:55;21.05;;;9.25;;
74614;SDS011;63121;51.458;-0.110;2023-05-14T01:55:21;18.92;;;8.93;;
74614;SDS011;63121;51.458;-0.110;2023-05-14T01:57:50;19.63;;;9.65;;
74614;SDS011;63121;51.458;-0.110;2023-05-14T02:00:16;18.55;;;9.18;;
74614;SDS011;63121;51.458;-0.110;2023-05-14T02:02:42;18.27;;;9.25;;
74614;SDS011;63121;51.458;-0.110;2023-05-14T02:05:08;19.77;;;8.65;;
74614;SDS011;63121;51.458;-0.110;2023-05-14T02:07:35;21.02;;;9.13;;
74614;SDS011;63121;51.458;-0.110;2023-05-14T02:10:00;20.47;;;10.23;;
74614;SDS011;63121;51.458;-0.110;2023-05-14T02:12:25;24.35;;;10.18;;
74614;SDS011;63121;51.458;-0.110;2023-05-14T02:14:51;20.83;;;9.37;;
74614;SDS011;63121;51.458;-0.110;2023-05-14T02:17:16;18.13;;;9.57;;
74614;SDS011;63121;51.458;-0.110;2023-05-14T02:19:42;22.60;;;10.68;;
74614;SDS011;63121;51.458;-0.110;2023-05-14T02:22:08;21.38;;;9.82;;
74614;SDS011;63121;51.458;-0.110;2023-05-14T02:24:33;19.70;;;9.00;;
74614;SDS011;63121;51.458;-0.110;2023-05-14T02:26:59;20.38;;;9.32;;
74614;SDS011;63121;51.458;-0.110;2023-05-14T02:29:25;20.50;;;9.35;;
74614;SDS011;63121;51.458;-0.110;2023-05-14T02:31:50;18.95;;;9.02;;
74614;SDS011;63121;51.458;-0.110;2023-05-14T02:34:16;18.87;;;8.97;;
74614;SDS011;63121;51.458;-0.110;2023-05-14T02:36:41;20.97;;;8.80;;
74614;SDS011;63121;51.458;-0.110;2023-05-14T02:39:06;23.33;;;9.63;;
74614;SDS011;63121;51.458;-0.110;2023-05-14T02:41:32;20.63;;;9.87;;
74614;SDS011;63121;51.458;-0.110;2023-05-14T02:43:57;18.25;;;9.13;;
74614;SDS011;63121;51.458;-0.110;2023-05-14T02:46:22;18.80;;;8.90;;
74614;SDS011;63121;51.458;-0.110;2023-05-14T02:48:48;19.63;;;9.27;;
74614;SDS011;63121;51.458;-0.110;2023-05-14T02:51:13;18.73;;;8.75;;
74614;SDS011;63121;51.458;-0.110;2023-05-14T02:53:38;18.30;;;9.07;;
74614;SDS011;63121;51.458;-0.110;2023-05-14T02:56:04;17.27;;;9.00;;
74614;SDS011;63121;51.458;-0.110;2023-05-14T02:58:29;20.30;;;8.73;;
74614;SDS011;63121;51.458;-0.110;2023-05-14T03:00:55;19.40;;;8.47;;
74614;SDS011;63121;51.458;-0.110;2023-05-14T03:03:20;17.23;;;8.27;;
74614;SDS011;63121;51.458;-0.110;2023-05-14T03:05:46;18.50;;;7.93;;
74614;SDS011;63121;51.458;-0.110;2023-05-14T03:08:11;19.63;;;8.40;;
74614;SDS011;63121;51.458;-0.110;2023-05-14T03:10:36;19.55;;;8.38;;
74614;SDS011;63121;51.458;-0.110;2023-05-14T03:13:02;17.67;;;7.97;;
74614;SDS011;63121;51.458;-0.110;2023-05-14T03:15:27;19.08;;;7.93;;
74614;SDS011;63121;51.458;-0.110;2023-05-14T03:17:53;15.88;;;7.40;;
74614;SDS011;63121;51.458;-0.110;2023-05-14T03:20:18;17.05;;;8.25;;
74614;SDS011;63121;51.458;-0.110;2023-05-14T03:22:44;16.58;;;8.32;;
74614;SDS011;63121;51.458;-0.110;2023-05-14T03:25:09;18.50;;;9.35;;
74614;SDS011;63121;51.458;-0.110;2023-05-14T03:27:36;17.97;;;9.00;;
74614;SDS011;63121;51.458;-0.110;2023-05-14T03:30:01;16.33;;;8.10;;
74614;SDS011;63121;51.458;-0.110;2023-05-14T03:32:27;18.02;;;7.82;;
74614;SDS011;63121;51.458;-0.110;2023-05-14T03:34:52;15.57;;;7.65;;
74614;SDS011;63121;51.458;-0.110;2023-05-14T03:37:18;20.13;;;8.98;;
74614;SDS011;63121;51.458;-0.110;2023-05-14T03:39:44;21.05;;;9.68;;
74614;SDS011;63121;51.458;-0.110;2023-05-14T03:42:09;18.67;;;8.63;;
74614;SDS011;63121;51.458;-0.110;2023-05-14T03:44:34;20.63;;;9.00;;
74614;SDS011;63121;51.458;-0.110;2023-05-14T03:47:00;18.93;;;8.60;;
74614;SDS011;63121;51.458;-0.110;2023-05-14T03:49:25;19.97;;;8.57;;
74614;SDS011;63121;51.458;-0.110;2023-05-14T03:51:50;19.17;;;9.02;;
74614;SDS011;63121;51.458;-0.110;2023-05-14T03:54:16;18.00;;;9.07;;
74614;SDS011;63121;51.458;-0.110;2023-05-14T03:56:41;17.48;;;8.63;;
74614;SDS011;63121;51.458;-0.110;2023-05-14T03:59:07;23.43;;;9.00;;
74614;SDS011;63121;51.458;-0.110;2023-05-14T04:01:32;21.70;;;9.05;;
74614;SDS011;63121;51.458;-0.110;2023-05-14T04:03:57;18.98;;;8.93;;
74614;SDS011;63121;51.458;-0.110;2023-05-14T04:06:23;16.77;;;7.87;;
74614;SDS011;63121;51.458;-0.110;2023-05-14T04:08:48;22.07;;;8.67;;
74614;SDS011;63121;51.458;-0.110;2023-05-14T04:11:13;17.65;;;8.20;;
74614;SDS011;63121;51.458;-0.110;2023-05-14T04:13:39;17.70;;;8.33;;
74614;SDS011;63121;51.458;-0.110;2023-05-14T04:16:05;18.75;;;8.20;;
74614;SDS011;63121;51.458;-0.110;2023-05-14T04:18:30;17.67;;;8.13;;
74614;SDS011;63121;51.458;-0.110;2023-05-14T04:20:59;21.17;;;9.38;;
74614;SDS011;63121;51.458;-0.110;2023-05-14T04:23:24;18.40;;;8.57;;
74614;SDS011;63121;51.458;-0.110;2023-05-14T04:25:50;18.10;;;7.90;;
74614;SDS011;63121;51.458;-0.110;2023-05-14T04:28:15;17.03;;;7.93;;
74614;SDS011;63121;51.458;-0.110;2023-05-14T04:30:40;19.02;;;8.63;;
74614;SDS011;63121;51.458;-0.110;2023-05-14T04:33:06;18.23;;;9.13;;
74614;SDS011;63121;51.458;-0.110;2023-05-14T04:35:31;17.77;;;8.75;;
74614;SDS011;63121;51.458;-0.110;2023-05-14T04:37:56;17.63;;;7.83;;
74614;SDS011;63121;51.458;-0.110;2023-05-14T04:40:22;14.88;;;7.85;;
74614;SDS011;63121;51.458;-0.110;2023-05-14T04:42:47;21.30;;;7.95;;
74614;SDS011;63121;51.458;-0.110;2023-05-14T04:45:13;20.08;;;8.35;;
74614;SDS011;63121;51.458;-0.110;2023-05-14T04:47:38;20.00;;;8.85;;
74614;SDS011;63121;51.458;-0.110;2023-05-14T04:50:04;16.27;;;7.87;;
74614;SDS011;63121;51.458;-0.110;2023-05-14T04:52:30;18.75;;;8.73;;
74614;SDS011;63121;51.458;-0.110;2023-05-14T04:54:55;17.87;;;8.17;;
74614;SDS011;63121;51.458;-0.110;2023-05-14T04:57:21;17.08;;;8.32;;
74614;SDS011;63121;51.458;-0.110;2023-05-14T04:59:46;19.02;;;8.68;;
74614;SDS011;63121;51.458;-0.110;2023-05-14T05:02:11;19.23;;;8.67;;
74614;SDS011;63121;51.458;-0.110;2023-05-14T05:04:37;15.57;;;7.53;;
74614;SDS011;63121;51.458;-0.110;2023-05-14T05:07:03;17.65;;;7.50;;
74614;SDS011;63121;51.458;-0.110;2023-05-14T05:09:29;15.95;;;8.05;;
74614;SDS011;63121;51.458;-0.110;2023-05-14T05:11:55;19.70;;;8.15;;
74614;SDS011;63121;51.458;-0.110;2023-05-14T05:14:20;17.70;;;8.37;;
74614;SDS011;63121;51.458;-0.110;2023-05-14T05:16:45;18.60;;;8.30;;
74614;SDS011;63121;51.458;-0.110;2023-05-14T05:19:11;20.42;;;8.57;;
74614;SDS011;63121;51.458;-0.110;2023-05-14T05:21:36;17.20;;;8.00;;
74614;SDS011;63121;51.458;-0.110;2023-05-14T05:24:04;18.10;;;7.90;;
74614;SDS011;63121;51.458;-0.110;2023-05-14T05:26:30;18.92;;;8.75;;
74614;SDS011;63121;51.458;-0.110;2023-05-14T05:29:00;18.42;;;8.00;;
74614;SDS011;63121;51.458;-0.110;2023-05-14T05:31:26;20.10;;;8.32;;
74614;SDS011;63121;51.458;-0.110;2023-05-14T05:33:51;19.23;;;8.07;;
74614;SDS011;63121;51.458;-0.110;2023-05-14T05:36:16;18.17;;;8.50;;
74614;SDS011;63121;51.458;-0.110;2023-05-14T05:38:42;18.83;;;8.00;;
74614;SDS011;63121;51.458;-0.110;2023-05-14T05:41:07;19.80;;;9.10;;
74614;SDS011;63121;51.458;-0.110;2023-05-14T05:43:32;21.27;;;8.63;;
74614;SDS011;63121;51.458;-0.110;2023-05-14T05:45:59;17.02;;;8.10;;
74614;SDS011;63121;51.458;-0.110;2023-05-14T05:48:25;19.20;;;8.50;;
74614;SDS011;63121;51.458;-0.110;2023-05-14T05:50:50;17.83;;;7.43;;
74614;SDS011;63121;51.458;-0.110;2023-05-14T05:53:15;19.25;;;8.15;;
74614;SDS011;63121;51.458;-0.110;2023-05-14T05:55:41;19.27;;;8.60;;
74614;SDS011;63121;51.458;-0.110;2023-05-14T05:58:06;17.98;;;8.40;;
74614;SDS011;63121;51.458;-0.110;2023-05-14T06:00:32;18.25;;;8.23;;
74614;SDS011;63121;51.458;-0.110;2023-05-14T06:02:57;20.27;;;9.07;;
74614;SDS011;63121;51.458;-0.110;2023-05-14T06:05:23;20.10;;;8.95;;
74614;SDS011;63121;51.458;-0.110;2023-05-14T06:07:48;19.80;;;8.55;;
74614;SDS011;63121;51.458;-0.110;2023-05-14T06:10:14;18.33;;;8.97;;
74614;SDS011;63121;51.458;-0.110;2023-05-14T06:12:39;15.40;;;6.93;;
74614;SDS011;63121;51.458;-0.110;2023-05-14T06:15:05;18.27;;;8.75;;
74614;SDS011;63121;51.458;-0.110;2023-05-14T06:17:30;19.75;;;8.13;;
74614;SDS011;63121;51.458;-0.110;2023-05-14T06:19:56;19.27;;;8.50;;
74614;SDS011;63121;51.458;-0.110;2023-05-14T06:22:21;17.17;;;8.83;;
74614;SDS011;63121;51.458;-0.110;2023-05-14T06:24:46;20.67;;;8.73;;
74614;SDS011;63121;51.458;-0.110;2023-05-14T06:27:12;21.10;;;9.05;;
74614;SDS011;63121;51.458;-0.110;2023-05-14T06:29:37;18.38;;;8.25;;
74614;SDS011;63121;51.458;-0.110;2023-05-14T06:32:03;19.23;;;8.82;;
74614;SDS011;63121;51.458;-0.110;2023-05-14T06:34:29;17.50;;;8.55;;
74614;SDS011;63121;51.458;-0.110;2023-05-14T06:36:55;19.55;;;8.48;;
74614;SDS011;63121;51.458;-0.110;2023-05-14T06:39:21;16.48;;;8.05;;
74614;SDS011;63121;51.458;-0.110;2023-05-14T06:41:47;18.98;;;8.73;;
74614;SDS011;63121;51.458;-0.110;2023-05-14T06:44:12;18.42;;;8.85;;
74614;SDS011;63121;51.458;-0.110;2023-05-14T06:46:37;19.07;;;9.10;;
74614;SDS011;63121;51.458;-0.110;2023-05-14T06:49:03;18.98;;;8.40;;
74614;SDS011;63121;51.458;-0.110;2023-05-14T06:51:29;19.45;;;8.05;;
74614;SDS011;63121;51.458;-0.110;2023-05-14T06:53:54;20.27;;;9.35;;
74614;SDS011;63121;51.458;-0.110;2023-05-14T06:56:20;22.73;;;9.13;;
74614;SDS011;63121;51.458;-0.110;2023-05-14T06:58:46;20.42;;;9.95;;
74614;SDS011;63121;51.458;-0.110;2023-05-14T07:01:12;19.55;;;9.18;;
74614;SDS011;63121;51.458;-0.110;2023-05-14T07:03:37;19.85;;;8.90;;
74614;SDS011;63121;51.458;-0.110;2023-05-14T07:06:03;19.67;;;8.85;;
74614;SDS011;63121;51.458;-0.110;2023-05-14T07:08:28;20.42;;;9.13;;
74614;SDS011;63121;51.458;-0.110;2023-05-14T07:10:54;20.63;;;9.13;;
74614;SDS011;63121;51.458;-0.110;2023-05-14T07:13:20;20.17;;;9.20;;
74614;SDS011;63121;51.458;-0.110;2023-05-14T07:15:45;20.58;;;8.70;;
74614;SDS011;63121;51.458;-0.110;2023-05-14T07:18:11;22.13;;;9.30;;
74614;SDS011;63121;51.458;-0.110;2023-05-14T07:20:36;19.90;;;8.90;;
74614;SDS011;63121;51.458;-0.110;2023-05-14T07:23:01;18.97;;;8.63;;
74614;SDS011;63121;51.458;-0.110;2023-05-14T07:25:27;20.77;;;9.18;;
74614;SDS011;63121;51.458;-0.110;2023-05-14T07:27:52;19.90;;;8.60;;
74614;SDS011;63121;51.458;-0.110;2023-05-14T07:30:17;21.93;;;10.07;;
74614;SDS011;63121;51.458;-0.110;2023-05-14T07:32:43;15.77;;;6.97;;
74614;SDS011;63121;51.458;-0.110;2023-05-14T07:35:08;21.00;;;9.20;;
74614;SDS011;63121;51.458;-0.110;2023-05-14T07:37:35;18.50;;;9.02;;
74614;SDS011;63121;51.458;-0.110;2023-05-14T07:40:01;20.73;;;8.57;;
74614;SDS011;63121;51.458;-0.110;2023-05-14T07:42:26;20.35;;;9.07;;
74614;SDS011;63121;51.458;-0.110;2023-05-14T07:44:52;17.20;;;8.25;;
74614;SDS011;63121;51.458;-0.110;2023-05-14T07:47:17;18.85;;;8.80;;
74614;SDS011;63121;51.458;-0.110;2023-05-14T07:49:43;17.90;;;8.73;;
74614;SDS011;63121;51.458;-0.110;2023-05-14T07:52:08;19.05;;;8.93;;
74614;SDS011;63121;51.458;-0.110;2023-05-14T07:54:34;18.83;;;8.77;;
74614;SDS011;63121;51.458;-0.110;2023-05-14T07:56:59;18.92;;;9.30;;
74614;SDS011;63121;51.458;-0.110;2023-05-14T07:59:25;18.50;;;9.07;;
74614;SDS011;63121;51.458;-0.110;2023-05-14T08:01:50;15.80;;;8.43;;
74614;SDS011;63121;51.458;-0.110;2023-05-14T08:04:15;18.63;;;8.35;;
74614;SDS011;63121;51.458;-0.110;2023-05-14T08:06:41;20.65;;;8.65;;
74614;SDS011;63121;51.458;-0.110;2023-05-14T08:09:07;17.40;;;8.73;;
74614;SDS011;63121;51.458;-0.110;2023-05-14T08:11:33;18.30;;;8.18;;
74614;SDS011;63121;51.458;-0.110;2023-05-14T08:13:59;18.48;;;8.30;;
74614;SDS011;63121;51.458;-0.110;2023-05-14T08:16:24;16.70;;;7.90;;
74614;SDS011;63121;51.458;-0.110;2023-05-14T08:18:50;18.63;;;8.93;;
74614;SDS011;63121;51.458;-0.110;2023-05-14T08:21:16;16.98;;;8.57;;
74614;SDS011;63121;51.458;-0.110;2023-05-14T08:23:41;17.48;;;7.95;;
74614;SDS011;63121;51.458;-0.110;2023-05-14T08:26:07;16.58;;;7.65;;
74614;SDS011;63121;51.458;-0.110;2023-05-14T08:28:33;16.98;;;7.78;;
74614;SDS011;63121;51.458;-0.110;2023-05-14T08:30:59;17.48;;;7.65;;
74614;SDS011;63121;51.458;-0.110;2023-05-14T08:33:24;15.13;;;7.35;;
74614;SDS011;63121;51.458;-0.110;2023-05-14T08:35:53;17.08;;;7.32;;
74614;SDS011;63121;51.458;-0.110;2023-05-14T08:38:18;16.48;;;7.43;;
74614;SDS011;63121;51.458;-0.110;2023-05-14T08:40:54;17.80;;;8.48;;
74614;SDS011;63121;51.458;-0.110;2023-05-14T08:43:23;16.20;;;7.72;;
74614;SDS011;63121;51.458;-0.110;2023-05-14T08:45:52;16.27;;;7.00;;
74614;SDS011;63121;51.458;-0.110;2023-05-14T08:48:21;15.20;;;7.07;;
74614;SDS011;63121;51.458;-0.110;2023-05-14T08:50:49;16.63;;;8.02;;
74614;SDS011;63121;51.458;-0.110;2023-05-14T08:53:14;15.80;;;7.78;;
74614;SDS011;63121;51.458;-0.110;2023-05-14T08:55:40;16.67;;;7.55;;
74614;SDS011;63121;51.458;-0.110;2023-05-14T08:58:06;16.35;;;7.75;;
74614;SDS011;63121;51.458;-0.110;2023-05-14T09:00:31;18.30;;;8.23;;
74614;SDS011;63121;51.458;-0.110;2023-05-14T09:02:56;16.25;;;8.00;;
74614;SDS011;63121;51.458;-0.110;2023-05-14T09:07:49;18.25;;;8.63;;
74614;SDS011;63121;51.458;-0.110;2023-05-14T09:10:14;17.30;;;8.45;;
74614;SDS011;63121;51.458;-0.110;2023-05-14T09:12:41;17.25;;;8.13;;
74614;SDS011;63121;51.458;-0.110;2023-05-14T09:15:06;15.75;;;8.07;;
74614;SDS011;63121;51.458;-0.110;2023-05-14T09:17:32;17.35;;;7.85;;
74614;SDS011;63121;51.458;-0.110;2023-05-14T09:19:57;17.77;;;8.02;;
74614;SDS011;63121;51.458;-0.110;2023-05-14T09:22:23;16.75;;;8.05;;
74614;SDS011;63121;51.458;-0.110;2023-05-14T09:27:50;17.13;;;8.38;;
74614;SDS011;63121;51.458;-0.110;2023-05-14T09:30:16;19.88;;;9.15;;
74614;SDS011;63121;51.458;-0.110;2023-05-14T09:32:42;19.85;;;9.02;;
74614;SDS011;63121;51.458;-0.110;2023-05-14T09:35:12;17.90;;;8.82;;
74614;SDS011;63121;51.458;-0.110;2023-05-14T09:37:41;16.95;;;8.30;;
74614;SDS011;63121;51.458;-0.110;2023-05-14T09:42:33;15.82;;;7.95;;
74614;SDS011;63121;51.458;-0.110;2023-05-14T09:44:58;20.83;;;8.80;;
74614;SDS011;63121;51.458;-0.110;2023-05-14T09:47:24;18.95;;;9.00;;
74614;SDS011;63121;51.458;-0.110;2023-05-14T09:49:49;15.93;;;8.20;;
74614;SDS011;63121;51.458;-0.110;2023-05-14T09:52:17;19.03;;;9.10;;
74614;SDS011;63121;51.458;-0.110;2023-05-14T09:54:43;17.23;;;8.13;;
74614;SDS011;63121;51.458;-0.110;2023-05-14T09:57:10;19.10;;;8.23;;
74614;SDS011;63121;51.458;-0.110;2023-05-14T09:59:35;18.60;;;7.87;;
74614;SDS011;63121;51.458;-0.110;2023-05-14T10:02:01;17.05;;;8.27;;
74614;SDS011;63121;51.458;-0.110;2023-05-14T10:04:29;15.23;;;8.00;;
74614;SDS011;63121;51.458;-0.110;2023-05-14T10:06:56;17.65;;;8.80;;
74614;SDS011;63121;51.458;-0.110;2023-05-14T10:09:23;16.45;;;8.43;;
74614;SDS011;63121;51.458;-0.110;2023-05-14T10:11:52;15.88;;;8.07;;
74614;SDS011;63121;51.458;-0.110;2023-05-14T10:14:25;18.15;;;8.52;;
74614;SDS011;63121;51.458;-0.110;2023-05-14T10:16:57;18.20;;;8.52;;
74614;SDS011;63121;51.458;-0.110;2023-05-14T10:19:24;18.48;;;8.70;;
74614;SDS011;63121;51.458;-0.110;2023-05-14T10:21:52;17.77;;;8.63;;
74614;SDS011;63121;51.458;-0.110;2023-05-14T10:24:28;19.75;;;9.23;;
74614;SDS011;63121;51.458;-0.110;2023-05-14T10:26:54;17.17;;;8.27;;
74614;SDS011;63121;51.458;-0.110;2023-05-14T10:29:22;17.38;;;8.10;;
74614;SDS011;63121;51.458;-0.110;2023-05-14T10:31:57;17.15;;;8.52;;
74614;SDS011;63121;51.458;-0.110;2023-05-14T10:34:33;16.27;;;8.63;;
74614;SDS011;63121;51.458;-0.110;2023-05-14T10:37:02;16.08;;;8.23;;
74614;SDS011;63121;51.458;-0.110;2023-05-14T10:39:49;16.70;;;8.40;;
74614;SDS011;63121;51.458;-0.110;2023-05-14T10:44:52;16.05;;;8.00;;
74614;SDS011;63121;51.458;-0.110;2023-05-14T10:47:28;16.95;;;7.82;;
74614;SDS011;63121;51.458;-0.110;2023-05-14T10:49:56;17.00;;;8.38;;
74614;SDS011;63121;51.458;-0.110;2023-05-14T10:52:23;15.27;;;7.50;;
74614;SDS011;63121;51.458;-0.110;2023-05-14T10:57:19;17.25;;;8.80;;
74614;SDS011;63121;51.458;-0.110;2023-05-14T10:59:47;15.45;;;8.00;;
74614;SDS011;63121;51.458;-0.110;2023-05-14T11:02:46;14.63;;;7.40;;
74614;SDS011;63121;51.458;-0.110;2023-05-14T11:05:06;17.52;;;7.97;;
74614;SDS011;63121;51.458;-0.110;2023-05-14T11:07:41;15.80;;;7.95;;
74614;SDS011;63121;51.458;-0.110;2023-05-14T11:10:09;15.68;;;7.68;;
74614;SDS011;63121;51.458;-0.110;2023-05-14T11:12:39;14.10;;;6.93;;
74614;SDS011;63121;51.458;-0.110;2023-05-14T11:15:06;16.02;;;7.47;;
74614;SDS011;63121;51.458;-0.110;2023-05-14T11:17:34;13.65;;;7.28;;
74614;SDS011;63121;51.458;-0.110;2023-05-14T11:22:26;16.77;;;7.60;;
74614;SDS011;63121;51.458;-0.110;2023-05-14T11:24:51;14.43;;;7.65;;
74614;SDS011;63121;51.458;-0.110;2023-05-14T11:27:17;16.15;;;8.43;;
74614;SDS011;63121;51.458;-0.110;2023-05-14T11:29:44;16.25;;;7.97;;
74614;SDS011;63121;51.458;-0.110;2023-05-14T11:32:11;15.88;;;7.55;;
74614;SDS011;63121;51.458;-0.110;2023-05-14T11:34:37;15.77;;;8.13;;
74614;SDS011;63121;51.458;-0.110;2023-05-14T11:37:03;16.92;;;7.88;;
74614;SDS011;63121;51.458;-0.110;2023-05-14T11:39:32;15.82;;;7.53;;
74614;SDS011;63121;51.458;-0.110;2023-05-14T11:41:58;15.43;;;8.23;;
74614;SDS011;63121;51.458;-0.110;2023-05-14T11:44:27;16.23;;;8.07;;
74614;SDS011;63121;51.458;-0.110;2023-05-14T11:46:53;15.77;;;7.78;;
74614;SDS011;63121;51.458;-0.110;2023-05-14T11:49:22;16.20;;;8.30;;
74614;SDS011;63121;51.458;-0.110;2023-05-14T11:51:49;16.90;;;7.65;;
74614;SDS011;63121;51.458;-0.110;2023-05-14T11:54:15;19.75;;;8.82;;
74614;SDS011;63121;51.458;-0.110;2023-05-14T11:56:40;17.48;;;8.25;;
74614;SDS011;63121;51.458;-0.110;2023-05-14T11:59:05;17.98;;;8.75;;
74614;SDS011;63121;51.458;-0.110;2023-05-14T12:01:38;16.02;;;9.13;;
74614;SDS011;63121;51.458;-0.110;2023-05-14T12:04:03;15.43;;;8.07;;
74614;SDS011;63121;51.458;-0.110;2023-05-14T12:06:29;16.63;;;7.85;;
74614;SDS011;63121;51.458;-0.110;2023-05-14T12:11:21;15.43;;;8.30;;
74614;SDS011;63121;51.458;-0.110;2023-05-14T12:13:47;15.60;;;7.93;;
74614;SDS011;63121;51.458;-0.110;2023-05-14T12:16:12;14.65;;;7.22;;
74614;SDS011;63121;51.458;-0.110;2023-05-14T12:18:37;14.45;;;7.80;;
74614;SDS011;63121;51.458;-0.110;2023-05-14T12:21:03;16.02;;;7.88;;
74614;SDS011;63121;51.458;-0.110;2023-05-14T12:23:32;14.70;;;6.95;;
74614;SDS011;63121;51.458;-0.110;2023-05-14T12:26:01;12.07;;;6.75;;
74614;SDS011;63121;51.458;-0.110;2023-05-14T12:28:28;14.82;;;7.47;;
74614;SDS011;63121;51.458;-0.110;2023-05-14T12:30:57;18.45;;;7.75;;
74614;SDS011;63121;51.458;-0.110;2023-05-14T12:33:23;13.85;;;6.97;;
74614;SDS011;63121;51.458;-0.110;2023-05-14T12:35:51;13.35;;;6.35;;
74614;SDS011;63121;51.458;-0.110;2023-05-14T12:38:17;13.93;;;6.75;;
74614;SDS011;63121;51.458;-0.110;2023-05-14T12:40:46;13.95;;;6.65;;
74614;SDS011;63121;51.458;-0.110;2023-05-14T12:43:11;12.82;;;6.43;;
74614;SDS011;63121;51.458;-0.110;2023-05-14T12:45:37;12.37;;;6.40;;
74614;SDS011;63121;51.458;-0.110;2023-05-14T12:48:02;15.40;;;7.40;;
74614;SDS011;63121;51.458;-0.110;2023-05-14T12:50:28;12.57;;;5.78;;
74614;SDS011;63121;51.458;-0.110;2023-05-14T12:52:53;14.05;;;6.55;;
74614;SDS011;63121;51.458;-0.110;2023-05-14T12:55:18;14.60;;;6.40;;
74614;SDS011;63121;51.458;-0.110;2023-05-14T12:57:44;12.25;;;5.55;;
74614;SDS011;63121;51.458;-0.110;2023-05-14T13:00:09;11.57;;;5.50;;
74614;SDS011;63121;51.458;-0.110;2023-05-14T13:02:35;15.35;;;6.80;;
74614;SDS011;63121;51.458;-0.110;2023-05-14T13:05:00;14.23;;;7.13;;
74614;SDS011;63121;51.458;-0.110;2023-05-14T13:07:29;13.52;;;6.60;;
74614;SDS011;63121;51.458;-0.110;2023-05-14T13:09:55;15.82;;;7.10;;
74614;SDS011;63121;51.458;-0.110;2023-05-14T13:12:21;14.07;;;7.50;;
74614;SDS011;63121;51.458;-0.110;2023-05-14T13:14:47;15.65;;;7.15;;
74614;SDS011;63121;51.458;-0.110;2023-05-14T13:17:12;16.73;;;7.32;;
74614;SDS011;63121;51.458;-0.110;2023-05-14T13:19:38;14.95;;;7.22;;
74614;SDS011;63121;51.458;-0.110;2023-05-14T13:22:03;13.23;;;7.07;;
74614;SDS011;63121;51.458;-0.110;2023-05-14T13:24:29;13.10;;;6.60;;
74614;SDS011;63121;51.458;-0.110;2023-05-14T13:26:54;12.87;;;6.10;;
74614;SDS011;63121;51.458;-0.110;2023-05-14T13:29:19;13.83;;;6.33;;
74614;SDS011;63121;51.458;-0.110;2023-05-14T13:31:44;11.73;;;5.90;;
74614;SDS011;63121;51.458;-0.110;2023-05-14T13:34:10;12.77;;;6.47;;
74614;SDS011;63121;51.458;-0.110;2023-05-14T13:36:36;12.57;;;6.03;;
74614;SDS011;63121;51.458;-0.110;2023-05-14T13:39:04;12.43;;;6.70;;
74614;SDS011;63121;51.458;-0.110;2023-05-14T13:41:30;15.68;;;7.53;;
74614;SDS011;63121;51.458;-0.110;2023-05-14T13:43:59;13.07;;;6.38;;
74614;SDS011;63121;51.458;-0.110;2023-05-14T13:46:24;12.98;;;5.97;;
74614;SDS011;63121;51.458;-0.110;2023-05-14T13:48:49;12.00;;;6.28;;
74614;SDS011;63121;51.458;-0.110;2023-05-14T13:51:15;13.70;;;7.07;;
74614;SDS011;63121;51.458;-0.110;2023-05-14T13:53:40;11.45;;;6.13;;
74614;SDS011;63121;51.458;-0.110;2023-05-14T13:56:06;11.80;;;5.95;;
74614;SDS011;63121;51.458;-0.110;2023-05-14T13:58:32;11.20;;;5.88;;
74614;SDS011;63121;51.458;-0.110;2023-05-14T14:00:58;11.05;;;5.50;;
74614;SDS011;63121;51.458;-0.110;2023-05-14T14:03:23;12.10;;;5.72;;
74614;SDS011;63121;51.458;-0.110;2023-05-14T14:05:49;13.27;;;6.35;;
74614;SDS011;63121;51.458;-0.110;2023-05-14T14:10:40;11.37;;;5.83;;
74614;SDS011;63121;51.458;-0.110;2023-05-14T14:13:06;10.77;;;5.85;;
74614;SDS011;63121;51.458;-0.110;2023-05-14T14:15:32;11.38;;;5.97;;
74614;SDS011;63121;51.458;-0.110;2023-05-14T14:17:57;10.13;;;5.18;;
74614;SDS011;63121;51.458;-0.110;2023-05-14T14:20:22;10.13;;;5.73;;
74614;SDS011;63121;51.458;-0.110;2023-05-14T14:22:48;10.20;;;5.10;;
74614;SDS011;63121;51.458;-0.110;2023-05-14T14:25:13;10.77;;;5.45;;
74614;SDS011;63121;51.458;-0.110;2023-05-14T14:27:39;9.35;;;5.00;;
74614;SDS011;63121;51.458;-0.110;2023-05-14T14:30:06;11.18;;;5.20;;
74614;SDS011;63121;51.458;-0.110;2023-05-14T14:32:32;9.30;;;4.80;;
74614;SDS011;63121;51.458;-0.110;2023-05-14T14:34:57;10.73;;;4.70;;
74614;SDS011;63121;51.458;-0.110;2023-05-14T14:37:23;12.17;;;5.70;;
74614;SDS011;63121;51.458;-0.110;2023-05-14T14:39:48;12.40;;;5.53;;
74614;SDS011;63121;51.458;-0.110;2023-05-14T14:42:13;11.23;;;5.13;;